sensor_id;sensor_type;location;lat;lon;timestamp;P1;durP1;ratioP1;P2;durP2;ratioP2
10063;SDS011;5071;52.360;13.134;2023-03-08T00:00:15;2.73;;;1.47;;
10063;SDS011;5071;52.360;13.134;2023-03-08T00:05:20;3.27;;;1.23;;
10063;SDS011;5071;52.360;13.134;2023-03-08T00:10:22;5.20;;;1.63;;
10063;SDS011;5071;52.360;13.134;2023-03-08T00:15:24;1.97;;;1.57;;
10063;SDS011;5071;52.360;13.134;2023-03-08T00:20:27;2.57;;;1.50;;
10063;SDS011;5071;52.360;13.134;2023-03-08T00:25:29;2.97;;;1.23;;
10063;SDS011;5071;52.360;13.134;2023-03-08T00:30:32;5.73;;;1.90;;
10063;SDS011;5071;52.360;13.134;2023-03-08T00:35:35;3.87;;;1.67;;
10063;SDS011;5071;52.360;13.134;2023-03-08T00:40:37;8.07;;;2.03;;
10063;SDS011;5071;52.360;13.134;2023-03-08T00:45:39;3.07;;;1.93;;
10063;SDS011;5071;52.360;13.134;2023-03-08T00:50:42;3.57;;;2.30;;
10063;SDS011;5071;52.360;13.134;2023-03-08T00:55:48;2.43;;;1.93;;
10063;SDS011;5071;52.360;13.134;2023-03-08T01:00:51;3.67;;;2.53;;
10063;SDS011;5071;52.360;13.134;2023-03-08T01:05:55;6.23;;;2.47;;
10063;SDS011;5071;52.360;13.134;2023-03-08T01:10:58;4.57;;;2.80;;
10063;SDS011;5071;52.360;13.134;2023-03-08T01:16:01;5.10;;;3.17;;
10063;SDS011;5071;52.360;13.134;2023-03-08T01:21:04;5.83;;;3.07;;
10063;SDS011;5071;52.360;13.134;2023-03-08T01:26:07;5.20;;;3.30;;
10063;SDS011;5071;52.360;13.134;2023-03-08T01:31:12;6.60;;;3.77;;
10063;SDS011;5071;52.360;13.134;2023-03-08T01:36:19;5.83;;;3.37;;
10063;SDS011;5071;52.360;13.134;2023-03-08T01:41:23;5.97;;;3.27;;
10063;SDS011;5071;52.360;13.134;2023-03-08T01:46:27;7.60;;;3.80;;
10063;SDS011;5071;52.360;13.134;2023-03-08T01:51:36;6.07;;;3.67;;
10063;SDS011;5071;52.360;13.134;2023-03-08T01:56:40;5.37;;;3.03;;
10063;SDS011;5071;52.360;13.134;2023-03-08T02:01:45;7.57;;;3.70;;
10063;SDS011;5071;52.360;13.134;2023-03-08T02:06:48;8.63;;;3.90;;
10063;SDS011;5071;52.360;13.134;2023-03-08T02:11:50;7.00;;;3.83;;
10063;SDS011;5071;52.360;13.134;2023-03-08T02:16:53;8.53;;;4.17;;
10063;SDS011;5071;52.360;13.134;2023-03-08T02:21:57;5.93;;;3.67;;
10063;SDS011;5071;52.360;13.134;2023-03-08T02:27:02;5.67;;;3.43;;
10063;SDS011;5071;52.360;13.134;2023-03-08T02:32:08;8.67;;;4.80;;
10063;SDS011;5071;52.360;13.134;2023-03-08T02:37:10;9.53;;;4.30;;
10063;SDS011;5071;52.360;13.134;2023-03-08T02:42:14;9.13;;;5.13;;
10063;SDS011;5071;52.360;13.134;2023-03-08T02:47:16;9.53;;;4.53;;
10063;SDS011;5071;52.360;13.134;2023-03-08T02:52:18;10.13;;;4.53;;
10063;SDS011;5071;52.360;13.134;2023-03-08T02:57:22;6.27;;;4.00;;
10063;SDS011;5071;52.360;13.134;2023-03-08T03:02:25;8.23;;;4.30;;
10063;SDS011;5071;52.360;13.134;2023-03-08T03:07:27;10.03;;;4.37;;
10063;SDS011;5071;52.360;13.134;2023-03-08T03:12:30;9.20;;;4.90;;
10063;SDS011;5071;52.360;13.134;2023-03-08T03:17:32;7.07;;;3.80;;
10063;SDS011;5071;52.360;13.134;2023-03-08T03:22:35;8.53;;;3.77;;
10063;SDS011;5071;52.360;13.134;2023-03-08T03:27:39;8.43;;;4.67;;
10063;SDS011;5071;52.360;13.134;2023-03-08T03:32:41;13.53;;;4.97;;
10063;SDS011;5071;52.360;13.134;2023-03-08T03:37:43;7.47;;;4.23;;
10063;SDS011;5071;52.360;13.134;2023-03-08T03:42:48;6.50;;;4.27;;
10063;SDS011;5071;52.360;13.134;2023-03-08T03:47:50;6.90;;;4.90;;
10063;SDS011;5071;52.360;13.134;2023-03-08T03:52:52;6.57;;;4.20;;
10063;SDS011;5071;52.360;13.134;2023-03-08T03:57:56;8.47;;;5.00;;
10063;SDS011;5071;52.360;13.134;2023-03-08T04:02:58;8.33;;;4.23;;
10063;SDS011;5071;52.360;13.134;2023-03-08T04:08:00;6.90;;;4.80;;
10063;SDS011;5071;52.360;13.134;2023-03-08T04:13:04;6.23;;;4.07;;
10063;SDS011;5071;52.360;13.134;2023-03-08T04:18:06;8.20;;;4.13;;
10063;SDS011;5071;52.360;13.134;2023-03-08T04:23:08;11.00;;;5.30;;
10063;SDS011;5071;52.360;13.134;2023-03-08T04:28:15;14.17;;;4.43;;
10063;SDS011;5071;52.360;13.134;2023-03-08T04:33:18;6.87;;;4.10;;
10063;SDS011;5071;52.360;13.134;2023-03-08T04:38:20;6.33;;;3.90;;
10063;SDS011;5071;52.360;13.134;2023-03-08T04:43:24;5.60;;;3.63;;
10063;SDS011;5071;52.360;13.134;2023-03-08T04:48:26;7.07;;;4.03;;
10063;SDS011;5071;52.360;13.134;2023-03-08T04:53:29;5.90;;;3.63;;
10063;SDS011;5071;52.360;13.134;2023-03-08T04:58:34;6.73;;;4.17;;
10063;SDS011;5071;52.360;13.134;2023-03-08T05:03:37;6.10;;;3.90;;
10063;SDS011;5071;52.360;13.134;2023-03-08T05:08:39;8.00;;;4.37;;
10063;SDS011;5071;52.360;13.134;2023-03-08T05:13:43;7.50;;;3.70;;
10063;SDS011;5071;52.360;13.134;2023-03-08T05:18:45;5.43;;;3.30;;
10063;SDS011;5071;52.360;13.134;2023-03-08T05:23:48;5.73;;;3.70;;
10063;SDS011;5071;52.360;13.134;2023-03-08T05:28:51;7.53;;;3.87;;
10063;SDS011;5071;52.360;13.134;2023-03-08T05:33:53;7.63;;;4.10;;
10063;SDS011;5071;52.360;13.134;2023-03-08T05:38:55;7.73;;;3.37;;
10063;SDS011;5071;52.360;13.134;2023-03-08T05:44:02;7.33;;;3.73;;
10063;SDS011;5071;52.360;13.134;2023-03-08T05:49:04;12.93;;;4.43;;
10063;SDS011;5071;52.360;13.134;2023-03-08T05:54:06;7.30;;;4.60;;
10063;SDS011;5071;52.360;13.134;2023-03-08T05:59:09;8.13;;;4.00;;
10063;SDS011;5071;52.360;13.134;2023-03-08T06:04:12;12.20;;;5.13;;
10063;SDS011;5071;52.360;13.134;2023-03-08T06:09:14;7.50;;;5.10;;
10063;SDS011;5071;52.360;13.134;2023-03-08T06:14:17;9.77;;;5.50;;
10063;SDS011;5071;52.360;13.134;2023-03-08T06:19:19;12.23;;;6.17;;
10063;SDS011;5071;52.360;13.134;2023-03-08T06:24:21;10.80;;;5.80;;
10063;SDS011;5071;52.360;13.134;2023-03-08T06:29:25;11.77;;;6.03;;
10063;SDS011;5071;52.360;13.134;2023-03-08T06:34:27;12.57;;;5.13;;
10063;SDS011;5071;52.360;13.134;2023-03-08T06:39:28;7.17;;;4.43;;
10063;SDS011;5071;52.360;13.134;2023-03-08T06:44:32;10.00;;;5.73;;
10063;SDS011;5071;52.360;13.134;2023-03-08T06:49:34;14.20;;;5.37;;
10063;SDS011;5071;52.360;13.134;2023-03-08T06:54:36;10.73;;;5.00;;
10063;SDS011;5071;52.360;13.134;2023-03-08T06:59:39;12.77;;;6.70;;
10063;SDS011;5071;52.360;13.134;2023-03-08T07:04:42;12.07;;;5.67;;
10063;SDS011;5071;52.360;13.134;2023-03-08T07:09:44;13.50;;;5.57;;
10063;SDS011;5071;52.360;13.134;2023-03-08T07:14:47;16.37;;;5.73;;
10063;SDS011;5071;52.360;13.134;2023-03-08T07:19:49;14.97;;;6.07;;
10063;SDS011;5071;52.360;13.134;2023-03-08T07:24:51;9.83;;;5.67;;
10063;SDS011;5071;52.360;13.134;2023-03-08T07:29:58;13.17;;;5.90;;
10063;SDS011;5071;52.360;13.134;2023-03-08T07:35:00;10.90;;;6.07;;
10063;SDS011;5071;52.360;13.134;2023-03-08T07:40:02;11.83;;;5.37;;
10063;SDS011;5071;52.360;13.134;2023-03-08T07:45:08;9.17;;;5.33;;
10063;SDS011;5071;52.360;13.134;2023-03-08T07:50:11;10.40;;;5.90;;
10063;SDS011;5071;52.360;13.134;2023-03-08T07:55:13;14.27;;;6.03;;
10063;SDS011;5071;52.360;13.134;2023-03-08T08:00:18;10.07;;;5.00;;
10063;SDS011;5071;52.360;13.134;2023-03-08T08:05:21;12.33;;;6.23;;
10063;SDS011;5071;52.360;13.134;2023-03-08T08:10:23;11.17;;;6.67;;
10063;SDS011;5071;52.360;13.134;2023-03-08T08:15:27;9.77;;;5.63;;
10063;SDS011;5071;52.360;13.134;2023-03-08T08:20:29;8.43;;;5.13;;
10063;SDS011;5071;52.360;13.134;2023-03-08T08:25:31;7.53;;;4.53;;
10063;SDS011;5071;52.360;13.134;2023-03-08T08:30:34;9.70;;;4.23;;
10063;SDS011;5071;52.360;13.134;2023-03-08T08:35:38;7.17;;;4.63;;
10063;SDS011;5071;52.360;13.134;2023-03-08T08:40:44;9.03;;;4.43;;
10063;SDS011;5071;52.360;13.134;2023-03-08T08:45:52;6.10;;;4.70;;
10063;SDS011;5071;52.360;13.134;2023-03-08T08:50:56;5.40;;;3.80;;
10063;SDS011;5071;52.360;13.134;2023-03-08T08:55:58;5.47;;;3.73;;
10063;SDS011;5071;52.360;13.134;2023-03-08T09:01:28;5.80;;;3.47;;
10063;SDS011;5071;52.360;13.134;2023-03-08T09:06:31;5.23;;;3.70;;
10063;SDS011;5071;52.360;13.134;2023-03-08T09:11:34;6.73;;;4.80;;
10063;SDS011;5071;52.360;13.134;2023-03-08T09:16:47;6.33;;;3.93;;
10063;SDS011;5071;52.360;13.134;2023-03-08T09:21:49;5.77;;;3.53;;
10063;SDS011;5071;52.360;13.134;2023-03-08T09:26:51;7.80;;;3.00;;
10063;SDS011;5071;52.360;13.134;2023-03-08T09:31:55;4.73;;;2.77;;
10063;SDS011;5071;52.360;13.134;2023-03-08T09:36:59;6.33;;;3.37;;
10063;SDS011;5071;52.360;13.134;2023-03-08T09:42:01;3.73;;;2.90;;
10063;SDS011;5071;52.360;13.134;2023-03-08T09:47:06;3.90;;;2.50;;
10063;SDS011;5071;52.360;13.134;2023-03-08T09:52:16;3.63;;;2.30;;
10063;SDS011;5071;52.360;13.134;2023-03-08T09:57:23;2.40;;;2.17;;
10063;SDS011;5071;52.360;13.134;2023-03-08T10:02:32;3.27;;;1.97;;
10063;SDS011;5071;52.360;13.134;2023-03-08T10:07:46;2.90;;;2.10;;
10063;SDS011;5071;52.360;13.134;2023-03-08T10:13:08;2.00;;;1.80;;
10063;SDS011;5071;52.360;13.134;2023-03-08T10:18:30;3.03;;;2.73;;
10063;SDS011;5071;52.360;13.134;2023-03-08T10:23:38;3.70;;;1.83;;
10063;SDS011;5071;52.360;13.134;2023-03-08T10:28:41;2.03;;;1.50;;
10063;SDS011;5071;52.360;13.134;2023-03-08T10:33:44;4.57;;;1.90;;
10063;SDS011;5071;52.360;13.134;2023-03-08T10:39:00;2.73;;;1.97;;
10063;SDS011;5071;52.360;13.134;2023-03-08T10:44:09;2.90;;;2.10;;
10063;SDS011;5071;52.360;13.134;2023-03-08T10:49:17;3.43;;;2.10;;
10063;SDS011;5071;52.360;13.134;2023-03-08T10:54:20;4.50;;;2.20;;
10063;SDS011;5071;52.360;13.134;2023-03-08T10:59:23;2.83;;;2.10;;
10063;SDS011;5071;52.360;13.134;2023-03-08T11:04:29;3.30;;;2.70;;
10063;SDS011;5071;52.360;13.134;2023-03-08T11:09:32;3.87;;;2.50;;
10063;SDS011;5071;52.360;13.134;2023-03-08T11:14:34;2.60;;;1.90;;
10063;SDS011;5071;52.360;13.134;2023-03-08T11:19:44;3.17;;;2.00;;
10063;SDS011;5071;52.360;13.134;2023-03-08T11:30:19;2.63;;;1.80;;
10063;SDS011;5071;52.360;13.134;2023-03-08T11:35:31;2.60;;;1.80;;
10063;SDS011;5071;52.360;13.134;2023-03-08T11:40:41;2.40;;;1.97;;
10063;SDS011;5071;52.360;13.134;2023-03-08T11:45:53;2.47;;;2.00;;
10063;SDS011;5071;52.360;13.134;2023-03-08T11:51:04;6.53;;;2.70;;
10063;SDS011;5071;52.360;13.134;2023-03-08T12:01:46;2.07;;;1.67;;
10063;SDS011;5071;52.360;13.134;2023-03-08T12:06:53;3.63;;;1.93;;
10063;SDS011;5071;52.360;13.134;2023-03-08T12:11:57;4.90;;;2.50;;
10063;SDS011;5071;52.360;13.134;2023-03-08T12:17:06;4.73;;;2.43;;
10063;SDS011;5071;52.360;13.134;2023-03-08T12:22:24;4.60;;;2.57;;
10063;SDS011;5071;52.360;13.134;2023-03-08T12:27:33;3.50;;;2.43;;
10063;SDS011;5071;52.360;13.134;2023-03-08T12:32:41;4.60;;;2.47;;
10063;SDS011;5071;52.360;13.134;2023-03-08T12:37:54;2.70;;;2.27;;
10063;SDS011;5071;52.360;13.134;2023-03-08T12:43:08;2.37;;;2.00;;
10063;SDS011;5071;52.360;13.134;2023-03-08T12:48:19;3.43;;;1.97;;
10063;SDS011;5071;52.360;13.134;2023-03-08T12:53:28;3.10;;;2.10;;
10063;SDS011;5071;52.360;13.134;2023-03-08T12:58:35;4.53;;;2.13;;
10063;SDS011;5071;52.360;13.134;2023-03-08T13:03:42;4.03;;;2.40;;
10063;SDS011;5071;52.360;13.134;2023-03-08T13:08:46;4.10;;;3.00;;
10063;SDS011;5071;52.360;13.134;2023-03-08T13:13:54;4.87;;;2.60;;
10063;SDS011;5071;52.360;13.134;2023-03-08T13:19:00;6.17;;;2.40;;
10063;SDS011;5071;52.360;13.134;2023-03-08T13:24:10;5.33;;;3.10;;
10063;SDS011;5071;52.360;13.134;2023-03-08T13:29:18;7.10;;;3.77;;
10063;SDS011;5071;52.360;13.134;2023-03-08T13:34:23;5.13;;;3.50;;
10063;SDS011;5071;52.360;13.134;2023-03-08T13:39:29;7.83;;;4.33;;
10063;SDS011;5071;52.360;13.134;2023-03-08T13:44:32;7.17;;;3.80;;
10063;SDS011;5071;52.360;13.134;2023-03-08T13:49:35;4.40;;;2.77;;
10063;SDS011;5071;52.360;13.134;2023-03-08T13:54:44;4.77;;;3.40;;
10063;SDS011;5071;52.360;13.134;2023-03-08T13:59:50;4.70;;;3.00;;
10063;SDS011;5071;52.360;13.134;2023-03-08T14:04:53;4.23;;;2.83;;
10063;SDS011;5071;52.360;13.134;2023-03-08T14:09:57;5.60;;;3.10;;
10063;SDS011;5071;52.360;13.134;2023-03-08T14:15:01;3.80;;;2.33;;
10063;SDS011;5071;52.360;13.134;2023-03-08T14:20:15;5.90;;;2.90;;
10063;SDS011;5071;52.360;13.134;2023-03-08T14:25:26;5.40;;;2.93;;
10063;SDS011;5071;52.360;13.134;2023-03-08T14:30:29;4.67;;;2.97;;
10063;SDS011;5071;52.360;13.134;2023-03-08T14:35:31;7.23;;;3.33;;
10063;SDS011;5071;52.360;13.134;2023-03-08T14:40:44;5.83;;;2.93;;
10063;SDS011;5071;52.360;13.134;2023-03-08T14:45:50;5.90;;;3.73;;
10063;SDS011;5071;52.360;13.134;2023-03-08T14:50:55;4.30;;;3.10;;
10063;SDS011;5071;52.360;13.134;2023-03-08T14:56:00;5.17;;;2.97;;
10063;SDS011;5071;52.360;13.134;2023-03-08T15:01:06;7.27;;;3.33;;
10063;SDS011;5071;52.360;13.134;2023-03-08T15:06:09;5.90;;;2.70;;
10063;SDS011;5071;52.360;13.134;2023-03-08T15:11:18;4.43;;;2.87;;
10063;SDS011;5071;52.360;13.134;2023-03-08T15:16:20;4.37;;;2.57;;
10063;SDS011;5071;52.360;13.134;2023-03-08T15:21:22;7.97;;;2.40;;
10063;SDS011;5071;52.360;13.134;2023-03-08T15:26:31;4.33;;;3.00;;
10063;SDS011;5071;52.360;13.134;2023-03-08T15:31:33;2.90;;;2.30;;
10063;SDS011;5071;52.360;13.134;2023-03-08T15:36:35;3.00;;;2.00;;
10063;SDS011;5071;52.360;13.134;2023-03-08T15:41:39;4.03;;;2.10;;
10063;SDS011;5071;52.360;13.134;2023-03-08T15:46:42;4.67;;;2.33;;
10063;SDS011;5071;52.360;13.134;2023-03-08T15:51:43;5.13;;;2.03;;
10063;SDS011;5071;52.360;13.134;2023-03-08T15:56:47;7.97;;;2.60;;
10063;SDS011;5071;52.360;13.134;2023-03-08T16:01:49;4.00;;;2.47;;
10063;SDS011;5071;52.360;13.134;2023-03-08T16:06:51;5.67;;;3.00;;
10063;SDS011;5071;52.360;13.134;2023-03-08T16:11:54;7.87;;;3.23;;
10063;SDS011;5071;52.360;13.134;2023-03-08T16:16:56;6.20;;;3.17;;
10063;SDS011;5071;52.360;13.134;2023-03-08T16:21:59;5.90;;;3.67;;
10063;SDS011;5071;52.360;13.134;2023-03-08T16:27:02;5.27;;;3.00;;
10063;SDS011;5071;52.360;13.134;2023-03-08T16:32:05;7.97;;;3.53;;
10063;SDS011;5071;52.360;13.134;2023-03-08T16:37:08;6.17;;;3.30;;
10063;SDS011;5071;52.360;13.134;2023-03-08T16:42:12;8.23;;;4.13;;
10063;SDS011;5071;52.360;13.134;2023-03-08T16:47:14;5.97;;;3.40;;
10063;SDS011;5071;52.360;13.134;2023-03-08T16:52:16;10.67;;;3.93;;
10063;SDS011;5071;52.360;13.134;2023-03-08T16:57:19;8.57;;;4.17;;
10063;SDS011;5071;52.360;13.134;2023-03-08T17:02:21;5.50;;;3.50;;
10063;SDS011;5071;52.360;13.134;2023-03-08T17:07:23;9.90;;;4.17;;
10063;SDS011;5071;52.360;13.134;2023-03-08T17:12:27;8.10;;;4.67;;
10063;SDS011;5071;52.360;13.134;2023-03-08T17:17:29;7.63;;;4.73;;
10063;SDS011;5071;52.360;13.134;2023-03-08T17:22:31;7.23;;;4.53;;
10063;SDS011;5071;52.360;13.134;2023-03-08T17:27:35;9.93;;;5.33;;
10063;SDS011;5071;52.360;13.134;2023-03-08T17:32:37;8.27;;;5.57;;
10063;SDS011;5071;52.360;13.134;2023-03-08T17:37:39;11.40;;;5.80;;
10063;SDS011;5071;52.360;13.134;2023-03-08T17:42:43;10.20;;;5.50;;
10063;SDS011;5071;52.360;13.134;2023-03-08T17:47:46;10.97;;;5.60;;
10063;SDS011;5071;52.360;13.134;2023-03-08T17:52:48;9.83;;;5.40;;
10063;SDS011;5071;52.360;13.134;2023-03-08T17:57:51;10.07;;;4.83;;
10063;SDS011;5071;52.360;13.134;2023-03-08T18:02:53;7.30;;;4.47;;
10063;SDS011;5071;52.360;13.134;2023-03-08T18:07:55;6.97;;;5.03;;
10063;SDS011;5071;52.360;13.134;2023-03-08T18:12:59;7.33;;;3.97;;
10063;SDS011;5071;52.360;13.134;2023-03-08T18:18:01;10.27;;;4.20;;
10063;SDS011;5071;52.360;13.134;2023-03-08T18:23:03;9.07;;;4.00;;
10063;SDS011;5071;52.360;13.134;2023-03-08T18:28:07;7.90;;;4.50;;
10063;SDS011;5071;52.360;13.134;2023-03-08T18:33:08;9.70;;;4.27;;
10063;SDS011;5071;52.360;13.134;2023-03-08T18:38:11;6.33;;;3.67;;
10063;SDS011;5071;52.360;13.134;2023-03-08T18:43:14;7.43;;;5.13;;
10063;SDS011;5071;52.360;13.134;2023-03-08T18:48:16;8.33;;;4.57;;
10063;SDS011;5071;52.360;13.134;2023-03-08T18:53:18;8.20;;;3.63;;
10063;SDS011;5071;52.360;13.134;2023-03-08T18:58:21;7.57;;;3.57;;
10063;SDS011;5071;52.360;13.134;2023-03-08T19:03:23;8.17;;;4.40;;
10063;SDS011;5071;52.360;13.134;2023-03-08T19:08:26;6.60;;;4.07;;
10063;SDS011;5071;52.360;13.134;2023-03-08T19:13:29;7.50;;;3.63;;
10063;SDS011;5071;52.360;13.134;2023-03-08T19:18:31;5.13;;;3.10;;
10063;SDS011;5071;52.360;13.134;2023-03-08T19:23:33;6.87;;;4.13;;
10063;SDS011;5071;52.360;13.134;2023-03-08T19:28:37;7.20;;;3.70;;
10063;SDS011;5071;52.360;13.134;2023-03-08T19:33:39;8.50;;;4.10;;
10063;SDS011;5071;52.360;13.134;2023-03-08T19:38:42;7.30;;;4.30;;
10063;SDS011;5071;52.360;13.134;2023-03-08T19:43:45;8.03;;;4.20;;
10063;SDS011;5071;52.360;13.134;2023-03-08T19:48:47;6.87;;;4.00;;
10063;SDS011;5071;52.360;13.134;2023-03-08T19:53:50;6.70;;;3.90;;
10063;SDS011;5071;52.360;13.134;2023-03-08T19:58:55;8.70;;;4.70;;
10063;SDS011;5071;52.360;13.134;2023-03-08T20:04:01;9.33;;;4.53;;
10063;SDS011;5071;52.360;13.134;2023-03-08T20:09:04;6.27;;;4.10;;
10063;SDS011;5071;52.360;13.134;2023-03-08T20:14:09;11.17;;;4.53;;
10063;SDS011;5071;52.360;13.134;2023-03-08T20:19:12;6.37;;;4.07;;
10063;SDS011;5071;52.360;13.134;2023-03-08T20:24:15;9.43;;;4.43;;
10063;SDS011;5071;52.360;13.134;2023-03-08T20:29:18;8.10;;;4.47;;
10063;SDS011;5071;52.360;13.134;2023-03-08T20:34:21;6.60;;;3.80;;
10063;SDS011;5071;52.360;13.134;2023-03-08T20:39:23;5.93;;;3.53;;
10063;SDS011;5071;52.360;13.134;2023-03-08T20:44:27;6.90;;;3.73;;
10063;SDS011;5071;52.360;13.134;2023-03-08T20:49:30;11.90;;;4.60;;
10063;SDS011;5071;52.360;13.134;2023-03-08T20:54:32;6.67;;;4.07;;
10063;SDS011;5071;52.360;13.134;2023-03-08T20:59:35;7.50;;;4.10;;
10063;SDS011;5071;52.360;13.134;2023-03-08T21:04:37;8.07;;;4.43;;
10063;SDS011;5071;52.360;13.134;2023-03-08T21:09:41;8.53;;;4.63;;
10063;SDS011;5071;52.360;13.134;2023-03-08T21:14:45;7.60;;;3.90;;
10063;SDS011;5071;52.360;13.134;2023-03-08T21:19:51;8.07;;;4.47;;
10063;SDS011;5071;52.360;13.134;2023-03-08T21:24:53;6.40;;;4.13;;
10063;SDS011;5071;52.360;13.134;2023-03-08T21:29:56;7.80;;;4.30;;
10063;SDS011;5071;52.360;13.134;2023-03-08T21:34:59;7.93;;;4.60;;
10063;SDS011;5071;52.360;13.134;2023-03-08T21:40:01;6.33;;;4.10;;
10063;SDS011;5071;52.360;13.134;2023-03-08T21:45:05;8.97;;;4.33;;
10063;SDS011;5071;52.360;13.134;2023-03-08T21:50:07;7.07;;;4.80;;
10063;SDS011;5071;52.360;13.134;2023-03-08T21:55:11;7.87;;;4.47;;
10063;SDS011;5071;52.360;13.134;2023-03-08T22:05:18;7.57;;;4.90;;
10063;SDS011;5071;52.360;13.134;2023-03-08T22:10:20;8.40;;;4.30;;
10063;SDS011;5071;52.360;13.134;2023-03-08T22:15:24;7.90;;;4.23;;
10063;SDS011;5071;52.360;13.134;2023-03-08T22:20:26;6.47;;;4.13;;
10063;SDS011;5071;52.360;13.134;2023-03-08T22:25:28;7.70;;;4.40;;
10063;SDS011;5071;52.360;13.134;2023-03-08T22:30:34;9.10;;;4.40;;
10063;SDS011;5071;52.360;13.134;2023-03-08T22:35:36;6.63;;;3.80;;
10063;SDS011;5071;52.360;13.134;2023-03-08T22:40:39;6.53;;;4.20;;
10063;SDS011;5071;52.360;13.134;2023-03-08T22:45:42;8.73;;;4.90;;
10063;SDS011;5071;52.360;13.134;2023-03-08T22:50:45;9.83;;;5.67;;
10063;SDS011;5071;52.360;13.134;2023-03-08T22:55:47;10.47;;;4.80;;
10063;SDS011;5071;52.360;13.134;2023-03-08T23:00:50;9.07;;;5.27;;
10063;SDS011;5071;52.360;13.134;2023-03-08T23:05:52;10.53;;;5.33;;
10063;SDS011;5071;52.360;13.134;2023-03-08T23:10:54;9.83;;;6.07;;
10063;SDS011;5071;52.360;13.134;2023-03-08T23:15:58;9.40;;;5.07;;
10063;SDS011;5071;52.360;13.134;2023-03-08T23:21:02;9.80;;;5.27;;
10063;SDS011;5071;52.360;13.134;2023-03-08T23:26:05;9.27;;;5.23;;
10063;SDS011;5071;52.360;13.134;2023-03-08T23:31:11;11.87;;;4.47;;
10063;SDS011;5071;52.360;13.134;2023-03-08T23:36:15;9.23;;;5.90;;
10063;SDS011;5071;52.360;13.134;2023-03-08T23:41:18;10.77;;;5.03;;
10063;SDS011;5071;52.360;13.134;2023-03-08T23:46:23;8.90;;;5.57;;
10063;SDS011;5071;52.360;13.134;2023-03-08T23:51:26;10.10;;;4.63;;
10063;SDS011;5071;52.360;13.134;2023-03-08T23:56:31;10.03;;;5.50;;
